FBKE

Kasane Airport

Kasane, Botswana
TAF FBKE 141200Z 1415/1424 11015KT CAVOK
Issued Valid From Valid To
Dec-14 @ 12:00 UTC
(10 hours ago)
Dec-14 @ 15:00 UTC
(7 hours ago)
Dec-15 @ 00:00 UTC
(in 2 hours)
Dec-14 @ 15:00 to Dec-15 @ 00:00
TAF FBKE 141200Z 1415/1424 11015KT CAVOK
Wind Visibility Clouds Conditions
110° at 15 knots 10,000+ meters
  • No significant clouds
TAF FBKE 141200Z 1415/1424 11015KT CAVOK
Issued Dec-14 @ 12:00 UTC
(10 hours ago)
Valid From Dec-14 @ 15:00 UTC
(7 hours ago)
Valid To Dec-15 @ 00:00 UTC
(in 2 hours)
Dec-14 @ 15:00 - Dec-15 @ 00:00
Wind Visibility
110° at 15 knots 10,000+ meters
Clouds
  • No significant clouds
Conditions